createdAt,value
2018-11-29T00:02:05.137Z,72.72
2018-11-29T00:04:32.928Z,72.68
2018-11-29T00:07:00.731Z,72.02
2018-11-29T00:09:32.965Z,72.85
2018-11-29T00:12:00.805Z,72.10
2018-11-29T00:14:28.562Z,73.14
2018-11-29T00:16:56.486Z,72.53
2018-11-29T00:19:24.257Z,72.77
2018-11-29T00:21:51.997Z,72.29
2018-11-29T00:24:19.845Z,71.68
2018-11-29T00:26:47.622Z,71.49
2018-11-29T00:29:15.362Z,71.40
2018-11-29T00:31:43.123Z,71.39
2018-11-29T00:34:10.953Z,71.00
2018-11-29T00:36:38.709Z,71.89
2018-11-29T00:39:07.002Z,71.66
2018-11-29T00:41:34.681Z,72.34
2018-11-29T00:44:02.444Z,69.80
2018-11-29T00:46:30.191Z,69.91
2018-11-29T00:48:57.921Z,70.79
2018-11-29T00:51:25.680Z,70.42
2018-11-29T00:53:53.436Z,70.38
2018-11-29T00:56:21.149Z,69.58
2018-11-29T00:58:48.939Z,68.61
2018-11-29T01:01:16.685Z,69.23
2018-11-29T01:03:44.454Z,68.50
2018-11-29T01:06:12.229Z,67.80
2018-11-29T01:08:39.998Z,66.78
2018-11-29T01:11:07.832Z,67.49
2018-11-29T01:13:35.618Z,67.26
2018-11-29T01:16:03.518Z,67.26
2018-11-29T01:18:31.307Z,66.38
2018-11-29T01:20:59.086Z,66.50
2018-11-29T01:23:26.829Z,66.67
2018-11-29T01:25:54.670Z,65.79
2018-11-29T01:28:22.450Z,65.69
2018-11-29T01:30:50.201Z,65.32
2018-11-29T01:33:17.938Z,65.62
2018-11-29T01:35:45.725Z,65.75
2018-11-29T01:38:13.529Z,65.29
2018-11-29T01:40:41.309Z,63.93
2018-11-29T01:43:09.076Z,64.80
2018-11-29T01:45:36.866Z,64.95
2018-11-29T01:48:04.894Z,64.88
2018-11-29T01:50:32.666Z,64.39
2018-11-29T01:53:00.489Z,66.16
2018-11-29T01:55:28.341Z,66.39
2018-11-29T01:57:56.072Z,67.48
2018-11-29T02:00:23.878Z,67.80
2018-11-29T02:02:52.335Z,68.00
2018-11-29T02:07:56.843Z,67.92
2018-11-29T02:10:26.186Z,67.44
2018-11-29T02:12:54.325Z,69.30
2018-11-29T02:15:22.226Z,68.85
2018-11-29T02:17:50.070Z,67.52
2018-11-29T02:20:19.356Z,66.92
2018-11-29T02:22:47.691Z,66.69
2018-11-29T02:25:15.502Z,66.78
2018-11-29T02:27:43.174Z,67.38
2018-11-29T02:30:13.342Z,67.73
2018-11-29T02:32:41.186Z,67.13
2018-11-29T02:35:09.032Z,67.03
2018-11-29T02:37:36.828Z,66.26
2018-11-29T02:40:06.417Z,66.23
2018-11-29T02:42:34.391Z,66.71
2018-11-29T02:45:02.209Z,66.06
2018-11-29T02:47:29.997Z,65.36
2018-11-29T02:49:57.757Z,65.98
2018-11-29T02:52:25.514Z,66.13
2018-11-29T02:54:53.846Z,65.68
2018-11-29T02:57:22.164Z,65.08
2018-11-29T02:59:50.670Z,64.72
2018-11-29T03:02:18.909Z,66.01
2018-11-29T03:04:47.195Z,65.25
2018-11-29T03:07:15.540Z,65.90
2018-11-29T03:09:43.794Z,65.89
2018-11-29T03:12:12.117Z,64.17
2018-11-29T03:14:40.540Z,63.93
2018-11-29T03:17:08.644Z,64.76
2018-11-29T03:19:36.774Z,64.47
2018-11-29T03:22:05.202Z,66.17
2018-11-29T03:24:33.189Z,66.48
2018-11-29T03:27:00.958Z,66.73
2018-11-29T03:29:28.762Z,65.29
2018-11-29T03:31:56.498Z,66.61
2018-11-29T03:34:24.305Z,64.43
2018-11-29T03:36:52.049Z,65.33
2018-11-29T03:39:19.791Z,65.52
2018-11-29T03:41:48.066Z,66.08
2018-11-29T03:44:16.337Z,66.01
2018-11-29T03:46:44.634Z,65.57
2018-11-29T03:49:12.853Z,66.72
2018-11-29T03:51:41.439Z,67.33
2018-11-29T03:54:09.530Z,66.06
2018-11-29T03:56:37.805Z,66.19
2018-11-29T03:59:06.001Z,66.28
2018-11-29T04:01:34.477Z,65.90
2018-11-29T04:04:02.906Z,65.33
2018-11-29T04:06:31.043Z,65.06
2018-11-29T04:08:59.500Z,65.26
2018-11-29T04:11:27.601Z,66.10
2018-11-29T04:13:56.081Z,66.18
2018-11-29T04:16:24.355Z,66.73
2018-11-29T04:18:52.590Z,66.84
2018-11-29T04:21:21.134Z,66.72
2018-11-29T04:23:49.358Z,66.65
2018-11-29T04:26:17.836Z,65.98
2018-11-29T04:28:45.900Z,67.97
2018-11-29T04:31:14.402Z,67.43
2018-11-29T04:33:42.612Z,67.34
2018-11-29T04:36:10.748Z,66.62
2018-11-29T04:38:39.221Z,66.07
2018-11-29T04:41:07.209Z,68.38
2018-11-29T04:43:34.940Z,67.66
2018-11-29T04:46:43.122Z,69.46
2018-11-29T04:49:10.921Z,67.11
2018-11-29T04:51:38.760Z,66.61
2018-11-29T04:54:07.185Z,66.10
2018-11-29T04:56:34.913Z,66.88
2018-11-29T04:59:02.778Z,68.07
2018-11-29T05:01:30.622Z,66.93
2018-11-29T05:03:59.098Z,68.37
2018-11-29T05:06:27.193Z,66.97
2018-11-29T05:08:55.585Z,66.05
2018-11-29T05:11:23.734Z,64.80
2018-11-29T05:13:51.534Z,65.38
2018-11-29T05:16:19.372Z,65.21
2018-11-29T05:18:47.231Z,64.97
2018-11-29T05:21:15.022Z,65.33
2018-11-29T05:23:42.841Z,64.92
2018-11-29T05:26:10.673Z,67.25
2018-11-29T05:28:38.461Z,66.45
2018-11-29T05:31:06.733Z,65.14
2018-11-29T05:33:34.522Z,65.68
2018-11-29T05:36:02.308Z,65.44
2018-11-29T05:38:30.262Z,65.46
2018-11-29T05:40:58.125Z,65.90
2018-11-29T05:43:25.930Z,66.76
2018-11-29T05:45:53.685Z,64.38
2018-11-29T05:48:21.476Z,65.12
2018-11-29T05:50:49.273Z,65.24
2018-11-29T05:53:17.187Z,66.71
2018-11-29T05:55:44.952Z,67.45
2018-11-29T05:58:12.697Z,65.24
2018-11-29T06:00:40.582Z,63.33
2018-11-29T06:03:08.449Z,63.96
2018-11-29T06:05:36.310Z,64.34
2018-11-29T06:08:04.118Z,64.49
2018-11-29T06:10:31.926Z,64.19
2018-11-29T06:12:59.741Z,65.74
2018-11-29T06:15:27.534Z,65.98
2018-11-29T06:17:55.341Z,65.36
2018-11-29T06:20:23.152Z,65.12
2018-11-29T06:22:51.009Z,64.52
2018-11-29T06:25:18.867Z,64.43
2018-11-29T06:27:46.592Z,63.53
2018-11-29T06:30:17.057Z,64.12
2018-11-29T06:32:44.853Z,63.67
2018-11-29T06:35:12.792Z,62.08
2018-11-29T06:37:40.568Z,63.99
2018-11-29T06:40:11.368Z,63.36
2018-11-29T06:42:39.194Z,62.70
2018-11-29T06:45:09.912Z,62.95
2018-11-29T06:47:37.725Z,64.64
2018-11-29T06:50:14.428Z,63.83
2018-11-29T06:52:43.470Z,64.43
2018-11-29T06:55:14.694Z,64.45
2018-11-29T06:57:42.538Z,63.49
2018-11-29T07:00:16.132Z,62.49
2018-11-29T07:02:43.905Z,61.20
2018-11-29T07:05:11.712Z,60.72
2018-11-29T07:07:39.492Z,61.80
2018-11-29T07:10:08.872Z,61.17
2018-11-29T07:12:37.649Z,61.99
2018-11-29T07:15:07.521Z,61.42
2018-11-29T07:17:35.234Z,60.28
2018-11-29T07:20:03.135Z,59.72
2018-11-29T07:22:30.957Z,60.37
2018-11-29T07:24:58.713Z,60.69
2018-11-29T07:27:26.461Z,59.93
2018-11-29T07:29:54.241Z,59.01
2018-11-29T07:32:23.710Z,59.26
2018-11-29T07:34:51.581Z,57.42
2018-11-29T07:37:19.481Z,57.75
2018-11-29T07:39:47.282Z,57.30
2018-11-29T07:42:15.106Z,56.48
2018-11-29T07:44:42.895Z,58.80
2018-11-29T07:47:10.645Z,55.82
2018-11-29T07:49:38.365Z,56.74
2018-11-29T07:52:06.249Z,55.97
2018-11-29T07:54:34.017Z,55.00
2018-11-29T07:57:01.703Z,56.78
2018-11-29T07:59:29.486Z,56.02
2018-11-29T08:01:57.253Z,54.64
2018-11-29T08:04:24.989Z,55.21
2018-11-29T08:06:52.737Z,54.34
2018-11-29T08:09:20.483Z,52.94
2018-11-29T08:11:48.246Z,52.60
2018-11-29T08:14:16.053Z,54.72
2018-11-29T08:16:43.828Z,53.10
2018-11-29T08:19:11.553Z,54.70
2018-11-29T08:21:39.341Z,53.28
2018-11-29T08:24:07.125Z,52.77
2018-11-29T08:26:34.888Z,54.75
2018-11-29T08:29:02.692Z,53.58
2018-11-29T08:31:30.429Z,54.15
2018-11-29T08:33:58.269Z,53.84
2018-11-29T08:36:26.013Z,53.30
2018-11-29T08:38:53.936Z,51.97
2018-11-29T08:41:21.716Z,52.33
2018-11-29T08:43:49.484Z,51.48
2018-11-29T08:46:17.286Z,51.10
2018-11-29T08:48:45.026Z,49.31
2018-11-29T08:51:12.782Z,48.72
2018-11-29T08:53:40.487Z,48.92
2018-11-29T08:56:08.309Z,49.10
2018-11-29T08:58:36.102Z,50.63
2018-11-29T09:01:03.847Z,50.80
2018-11-29T09:03:31.561Z,51.21
2018-11-29T09:05:59.310Z,51.43
2018-11-29T09:08:27.086Z,50.92
2018-11-29T09:10:54.881Z,50.68
2018-11-29T09:13:22.696Z,51.25
2018-11-29T09:15:50.538Z,50.41
2018-11-29T09:18:18.294Z,50.54
2018-11-29T09:20:46.101Z,50.48
2018-11-29T09:23:13.910Z,50.79
2018-11-29T09:25:41.689Z,52.06
2018-11-29T09:28:09.500Z,49.40
2018-11-29T09:30:37.298Z,50.69
2018-11-29T09:33:05.183Z,48.92
2018-11-29T09:35:32.967Z,49.10
2018-11-29T09:38:01.008Z,50.01
2018-11-29T09:40:28.779Z,49.41
2018-11-29T09:42:56.585Z,50.41
2018-11-29T09:45:24.442Z,51.15
2018-11-29T09:47:54.002Z,48.70
2018-11-29T09:50:22.027Z,49.14
2018-11-29T09:52:49.781Z,50.88
2018-11-29T09:55:17.975Z,50.07
2018-11-29T09:57:47.207Z,49.65
2018-11-29T10:00:27.726Z,48.03
2018-11-29T10:02:59.729Z,48.82
2018-11-29T10:05:27.890Z,49.42
2018-11-29T10:07:56.388Z,47.53
2018-11-29T10:10:24.689Z,46.02
2018-11-29T10:12:52.711Z,45.19
2018-11-29T10:15:20.568Z,43.85
2018-11-29T10:17:48.277Z,47.24
2018-11-29T10:20:16.437Z,47.26
2018-11-29T10:22:44.290Z,50.01
2018-11-29T10:25:14.051Z,50.70
2018-11-29T10:27:43.482Z,50.74
2018-11-29T10:30:27.157Z,51.37
2018-11-29T10:32:54.914Z,52.31
2018-11-29T10:35:22.734Z,52.40
2018-11-29T10:37:51.073Z,50.45
2018-11-29T10:40:19.486Z,50.46
2018-11-29T10:42:47.796Z,51.30
2018-11-29T10:45:17.797Z,50.57
2018-11-29T10:47:52.353Z,50.88
2018-11-29T10:50:15.727Z,51.75
2018-11-29T10:52:43.977Z,50.24
2018-11-29T10:55:16.021Z,49.33
2018-11-29T10:57:44.250Z,47.25
2018-11-29T11:00:20.375Z,47.37
2018-11-29T11:02:53.819Z,47.03
2018-11-29T11:05:21.979Z,46.30
2018-11-29T11:07:50.409Z,44.99
2018-11-29T11:10:18.645Z,47.12
2018-11-29T11:12:46.698Z,43.27
2018-11-29T11:15:14.437Z,43.50
2018-11-29T11:17:42.236Z,44.29
2018-11-29T11:20:09.958Z,43.52
2018-11-29T11:22:37.749Z,43.61
2018-11-29T11:25:07.220Z,45.35
2018-11-29T11:27:35.046Z,44.32
2018-11-29T11:30:03.596Z,43.01
2018-11-29T11:32:31.554Z,44.37
2018-11-29T11:34:59.796Z,48.15
2018-11-29T11:37:28.093Z,46.66
2018-11-29T11:39:56.391Z,47.27
2018-11-29T11:42:24.838Z,46.07
2018-11-29T11:44:53.105Z,46.11
2018-11-29T11:47:21.610Z,44.21
2018-11-29T11:49:49.870Z,45.64
2018-11-29T11:52:18.424Z,49.50
2018-11-29T11:54:46.667Z,49.87
2018-11-29T11:57:14.853Z,50.64
2018-11-29T11:59:43.193Z,49.48
2018-11-29T12:02:11.476Z,48.85
2018-11-29T12:04:39.941Z,48.70
2018-11-29T12:07:08.419Z,51.21
2018-11-29T12:09:36.886Z,50.56
2018-11-29T12:12:05.310Z,49.51
2018-11-29T12:14:33.638Z,50.38
2018-11-29T12:17:02.181Z,47.48
2018-11-29T12:19:30.570Z,44.64
2018-11-29T12:21:58.869Z,47.40
2018-11-29T12:24:27.247Z,51.37
2018-11-29T12:26:55.650Z,48.92
2018-11-29T12:29:23.850Z,49.64
2018-11-29T12:31:52.226Z,50.40
2018-11-29T12:34:20.462Z,49.72
2018-11-29T12:36:48.896Z,48.58
2018-11-29T12:39:17.030Z,48.93
2018-11-29T12:41:45.510Z,49.33
2018-11-29T12:44:13.722Z,50.44
2018-11-29T12:46:42.096Z,49.49
2018-11-29T12:49:10.558Z,49.33
2018-11-29T12:51:38.490Z,49.84
2018-11-29T12:54:07.116Z,49.62
2018-11-29T12:56:35.337Z,52.52
2018-11-29T12:59:03.462Z,49.25
2018-11-29T13:01:31.705Z,49.83
2018-11-29T13:04:01.483Z,51.43
2018-11-29T13:06:29.902Z,51.48
2018-11-29T13:09:06.898Z,51.96
2018-11-29T13:11:35.062Z,52.08
2018-11-29T13:14:03.574Z,51.87
2018-11-29T13:16:32.063Z,53.50
2018-11-29T13:19:00.113Z,55.42
2018-11-29T13:21:28.674Z,55.31
2018-11-29T13:24:00.035Z,55.70
2018-11-29T13:26:25.543Z,57.58
2018-11-29T13:28:53.834Z,56.59
2018-11-29T13:31:22.362Z,58.24
2018-11-29T13:33:50.757Z,59.29
2018-11-29T13:36:19.276Z,58.38
2018-11-29T13:38:47.753Z,59.05
2018-11-29T13:41:15.543Z,58.98
2018-11-29T13:43:43.254Z,59.61
2018-11-29T13:46:11.099Z,59.83
2018-11-29T13:48:38.898Z,59.60
2018-11-29T13:51:06.730Z,60.12
2018-11-29T13:53:34.702Z,59.65
2018-11-29T13:56:02.523Z,60.79
2018-11-29T13:58:30.392Z,60.60
2018-11-29T14:00:58.250Z,61.41
2018-11-29T14:03:26.126Z,61.92
2018-11-29T14:05:53.929Z,62.80
2018-11-29T14:08:21.879Z,61.86
2018-11-29T14:10:49.750Z,62.38
2018-11-29T14:13:17.562Z,62.21
2018-11-29T14:15:45.510Z,63.11
2018-11-29T14:18:13.353Z,63.27
2018-11-29T14:20:41.142Z,63.37
2018-11-29T14:23:09.037Z,62.80
2018-11-29T14:25:36.836Z,63.07
2018-11-29T14:28:05.190Z,64.21
2018-11-29T14:30:33.153Z,61.84
2018-11-29T14:33:01.125Z,62.70
2018-11-29T14:35:29.020Z,62.09
2018-11-29T14:37:56.853Z,63.06
2018-11-29T14:40:26.009Z,63.86
2018-11-29T14:42:53.910Z,62.40
2018-11-29T14:45:22.967Z,62.47
2018-11-29T14:47:50.846Z,62.53
2018-11-29T14:50:26.017Z,63.21
2018-11-29T14:52:53.966Z,62.97
2018-11-29T14:55:22.020Z,63.53
2018-11-29T14:57:50.137Z,63.68
2018-11-29T15:00:18.078Z,63.58
2018-11-29T15:02:45.963Z,63.54
2018-11-29T15:05:30.758Z,64.27
2018-11-29T15:07:58.577Z,65.26
2018-11-29T15:10:26.449Z,64.70
2018-11-29T15:12:54.329Z,64.03
2018-11-29T15:15:22.221Z,63.57
2018-11-29T15:17:51.280Z,63.50
2018-11-29T15:20:36.382Z,63.46
2018-11-29T15:23:04.374Z,63.56
2018-11-29T15:25:33.140Z,64.39
2018-11-29T15:28:00.266Z,64.25
2018-11-29T15:30:28.167Z,63.71
2018-11-29T15:32:55.949Z,64.48
2018-11-29T15:35:23.855Z,64.55
2018-11-29T15:37:51.628Z,64.42
2018-11-29T15:40:19.497Z,65.19
2018-11-29T15:42:47.472Z,64.25
2018-11-29T15:45:18.457Z,64.02
2018-11-29T15:47:46.357Z,64.08
2018-11-29T15:50:15.065Z,64.01
2018-11-29T15:52:42.918Z,62.98
2018-11-29T15:55:12.221Z,63.46
2018-11-29T15:57:40.052Z,63.12
2018-11-29T16:00:13.330Z,62.42
2018-11-29T16:02:41.326Z,63.35
2018-11-29T16:05:09.244Z,63.36
2018-11-29T16:07:37.059Z,64.18
2018-11-29T16:10:07.561Z,65.10
2018-11-29T16:12:35.366Z,62.83
2018-11-29T16:15:03.354Z,63.17
2018-11-29T16:17:31.581Z,62.97
2018-11-29T16:19:59.419Z,62.95
2018-11-29T16:22:27.293Z,62.93
2018-11-29T16:24:55.190Z,63.28
2018-11-29T16:27:23.013Z,62.92
2018-11-29T16:29:51.008Z,63.18
2018-11-29T16:32:18.957Z,63.73
2018-11-29T16:34:46.856Z,63.26
2018-11-29T16:37:14.717Z,63.49
2018-11-29T16:39:42.806Z,63.68
2018-11-29T16:42:10.746Z,64.02
2018-11-29T16:44:38.577Z,63.44
2018-11-29T16:47:06.466Z,63.74
2018-11-29T16:49:34.310Z,64.01
2018-11-29T16:52:02.171Z,64.97
2018-11-29T16:54:30.081Z,64.28
2018-11-29T16:56:58.006Z,64.15
2018-11-29T16:59:25.913Z,64.33
2018-11-29T17:01:53.966Z,64.19
2018-11-29T17:04:21.935Z,64.23
2018-11-29T17:06:49.769Z,62.91
2018-11-29T17:09:17.558Z,63.64
2018-11-29T17:11:45.416Z,62.85
2018-11-29T17:14:13.310Z,62.79
2018-11-29T17:16:41.145Z,62.16
2018-11-29T17:19:08.965Z,63.79
2018-11-29T17:21:36.883Z,64.41
2018-11-29T17:24:05.149Z,63.99
2018-11-29T17:26:32.939Z,62.81
2018-11-29T17:29:00.826Z,63.67
2018-11-29T17:31:28.803Z,63.72
2018-11-29T17:33:56.748Z,64.03
2018-11-29T17:36:24.605Z,64.46
2018-11-29T17:38:52.489Z,64.84
2018-11-29T17:41:20.333Z,64.91
2018-11-29T17:43:48.158Z,65.27
2018-11-29T17:46:16.036Z,64.58
2018-11-29T17:48:43.857Z,64.56
2018-11-29T17:51:11.722Z,64.29
2018-11-29T17:53:39.642Z,64.60
2018-11-29T17:56:07.573Z,64.09
2018-11-29T17:58:35.474Z,64.23
2018-11-29T18:01:03.342Z,63.22
2018-11-29T18:03:31.119Z,62.94
2018-11-29T18:05:59.045Z,63.16
2018-11-29T18:08:26.959Z,63.76
2018-11-29T18:10:56.594Z,64.06
2018-11-29T18:13:30.150Z,63.83
2018-11-29T18:15:58.062Z,63.16
2018-11-29T18:18:25.870Z,63.51
2018-11-29T18:20:53.710Z,62.90
2018-11-29T18:23:21.626Z,62.43
2018-11-29T18:25:49.515Z,63.79
2018-11-29T18:28:17.410Z,63.99
2018-11-29T18:30:45.322Z,65.15
2018-11-29T18:33:13.137Z,63.66
2018-11-29T18:35:41.080Z,63.44
2018-11-29T18:38:08.963Z,63.59
2018-11-29T18:40:36.808Z,64.04
2018-11-29T18:43:06.433Z,64.19
2018-11-29T18:45:34.330Z,63.18
2018-11-29T18:48:02.270Z,64.98
2018-11-29T18:50:30.130Z,62.86
2018-11-29T18:52:58.010Z,63.24
2018-11-29T18:55:26.222Z,62.00
2018-11-29T18:57:55.299Z,63.23
2018-11-29T19:00:26.302Z,62.81
2018-11-29T19:02:56.986Z,62.70
2018-11-29T19:05:22.281Z,62.23
2018-11-29T19:07:50.170Z,63.48
2018-11-29T19:10:18.472Z,63.99
2018-11-29T19:12:50.605Z,62.48
2018-11-29T19:15:18.487Z,64.67
2018-11-29T19:17:46.306Z,63.40
2018-11-29T19:20:14.250Z,63.58
2018-11-29T19:22:42.111Z,63.72
2018-11-29T19:25:13.991Z,62.97
2018-11-29T19:27:41.110Z,62.32
2018-11-29T19:30:11.329Z,64.46
2018-11-29T19:32:39.241Z,64.34
2018-11-29T19:35:07.926Z,68.23
2018-11-29T19:37:35.752Z,63.79
2018-11-29T19:40:04.821Z,66.32
2018-11-29T19:42:32.738Z,64.26
2018-11-29T19:45:00.542Z,66.84
2018-11-29T19:47:28.482Z,66.64
2018-11-29T19:49:56.386Z,63.17
2018-11-29T19:52:24.282Z,63.78
2018-11-29T19:54:52.174Z,63.93
2018-11-29T19:57:20.058Z,63.69
2018-11-29T19:59:47.934Z,63.56
2018-11-29T20:02:15.785Z,64.97
2018-11-29T20:04:43.747Z,64.14
2018-11-29T20:07:11.574Z,63.54
2018-11-29T20:09:39.425Z,65.30
2018-11-29T20:12:07.297Z,63.60
2018-11-29T20:14:35.184Z,64.39
2018-11-29T20:17:02.994Z,63.51
2018-11-29T20:19:30.814Z,64.42
2018-11-29T20:21:58.660Z,62.78
2018-11-29T20:24:26.496Z,64.14
2018-11-29T20:26:54.454Z,64.57
2018-11-29T20:29:22.242Z,62.94
2018-11-29T20:31:50.038Z,63.00
2018-11-29T20:34:18.628Z,64.86
2018-11-29T20:36:45.886Z,62.88
2018-11-29T20:39:13.713Z,64.38
2018-11-29T20:41:41.785Z,63.06
2018-11-29T20:44:09.586Z,62.12
2018-11-29T20:46:37.421Z,65.01
2018-11-29T20:49:05.524Z,62.11
2018-11-29T20:51:33.280Z,63.11
2018-11-29T20:54:01.251Z,62.73
2018-11-29T20:56:29.154Z,63.46
2018-11-29T20:58:56.925Z,62.51
2018-11-29T21:01:24.914Z,64.92
2018-11-29T21:03:52.757Z,64.14
2018-11-29T21:06:20.506Z,64.26
2018-11-29T21:08:48.361Z,63.34
2018-11-29T21:11:16.176Z,64.19
2018-11-29T21:13:44.016Z,63.57
2018-11-29T21:16:11.813Z,64.39
2018-11-29T21:18:39.709Z,64.16
2018-11-29T21:21:07.524Z,64.11
2018-11-29T21:23:35.337Z,62.46
2018-11-29T21:26:03.170Z,63.62
2018-11-29T21:28:31.047Z,64.09
2018-11-29T21:30:58.893Z,66.14
2018-11-29T21:33:26.917Z,64.05
2018-11-29T21:35:54.769Z,65.23
2018-11-29T21:38:22.603Z,64.76
2018-11-29T21:40:59.657Z,64.82
2018-11-29T21:43:27.529Z,65.82
2018-11-29T21:45:55.345Z,65.01
2018-11-29T21:48:23.182Z,64.63
2018-11-29T21:50:51.094Z,64.88
2018-11-29T21:53:18.963Z,65.00
2018-11-29T21:55:46.885Z,64.47
2018-11-29T21:58:14.749Z,64.29
2018-11-29T22:00:42.544Z,65.51
2018-11-29T22:03:10.373Z,64.49
2018-11-29T22:05:38.214Z,63.70
2018-11-29T22:08:06.117Z,66.73
2018-11-29T22:10:34.046Z,65.29
2018-11-29T22:13:01.949Z,64.27
2018-11-29T22:15:29.749Z,65.41
2018-11-29T22:18:31.242Z,65.57
2018-11-29T22:21:01.443Z,67.11
2018-11-29T22:23:29.881Z,66.20
2018-11-29T22:25:59.013Z,65.20
2018-11-29T22:28:26.826Z,65.24
2018-11-29T22:30:55.260Z,65.13
2018-11-29T22:33:23.123Z,68.19
2018-11-29T22:35:51.038Z,66.29
2018-11-29T22:38:18.897Z,64.97
2018-11-29T22:40:46.849Z,66.67
2018-11-29T22:43:14.610Z,66.77
2018-11-29T22:45:42.454Z,67.23
2018-11-29T22:48:10.324Z,66.78
2018-11-29T22:50:38.154Z,66.27
2018-11-29T22:53:06.210Z,66.36
2018-11-29T22:55:34.065Z,66.64
2018-11-29T22:58:02.023Z,67.91
2018-11-29T23:00:35.331Z,65.05
2018-11-29T23:03:03.281Z,65.49
2018-11-29T23:05:31.066Z,67.30
2018-11-29T23:07:59.058Z,66.26
2018-11-29T23:10:26.864Z,65.75
2018-11-29T23:12:54.689Z,65.47
2018-11-29T23:15:22.650Z,66.01
2018-11-29T23:17:50.468Z,65.33
2018-11-29T23:20:18.378Z,67.27
2018-11-29T23:22:46.200Z,67.30
2018-11-29T23:25:14.385Z,66.81
2018-11-29T23:27:42.241Z,66.81
2018-11-29T23:30:13.462Z,66.76
2018-11-29T23:32:41.706Z,65.59
2018-11-29T23:35:09.985Z,67.01
2018-11-29T23:37:37.832Z,65.40
2018-11-29T23:40:07.898Z,66.61
2018-11-29T23:42:35.713Z,65.58
2018-11-29T23:45:04.731Z,65.24
2018-11-29T23:47:32.622Z,65.78
2018-11-29T23:50:00.432Z,66.58
2018-11-29T23:52:28.305Z,66.35
2018-11-29T23:54:56.157Z,67.97
2018-11-29T23:57:23.974Z,66.74
2018-11-29T23:59:51.826Z,67.97
